createdAt,value
2023-01-09T00:00:34.525Z,978.84
2023-01-09T00:01:34.427Z,978.87
2023-01-09T00:02:34.483Z,978.85
2023-01-09T00:03:34.523Z,978.82
2023-01-09T00:04:34.478Z,978.81
2023-01-09T00:05:34.500Z,978.79
2023-01-09T00:06:34.516Z,978.8
2023-01-09T00:07:34.528Z,978.77
2023-01-09T00:08:34.543Z,978.78
2023-01-09T00:09:34.552Z,978.79
2023-01-09T00:10:34.598Z,978.73
2023-01-09T00:11:34.582Z,978.7
2023-01-09T00:12:34.598Z,978.72
2023-01-09T00:13:34.616Z,978.73
2023-01-09T00:14:34.633Z,978.71
2023-01-09T00:15:34.657Z,978.71
2023-01-09T00:16:34.706Z,978.66
2023-01-09T00:17:34.676Z,978.66
2023-01-09T00:18:34.697Z,978.66
2023-01-09T00:19:34.707Z,978.66
2023-01-09T00:20:34.726Z,978.66
2023-01-09T00:21:34.741Z,978.62
2023-01-09T00:22:34.755Z,978.6
2023-01-09T00:23:34.769Z,978.64
2023-01-09T00:24:35.239Z,978.57
2023-01-09T00:25:34.801Z,978.58
2023-01-09T00:26:34.846Z,978.59
2023-01-09T00:27:34.843Z,978.61
2023-01-09T00:28:34.855Z,978.58
2023-01-09T00:29:34.865Z,978.56
2023-01-09T00:30:34.921Z,978.52
2023-01-09T00:31:34.895Z,978.5
2023-01-09T00:32:34.910Z,978.48
2023-01-09T00:33:34.928Z,978.48
2023-01-09T00:34:34.940Z,978.48
2023-01-09T00:35:34.959Z,978.44
2023-01-09T00:36:34.974Z,978.44
2023-01-09T00:37:34.989Z,978.43
2023-01-09T00:38:35.004Z,978.38
2023-01-09T00:39:35.022Z,978.39
2023-01-09T00:40:35.035Z,978.4
2023-01-09T00:41:35.055Z,978.39
2023-01-09T00:42:35.097Z,978.4
2023-01-09T00:43:35.082Z,978.36
2023-01-09T00:44:35.097Z,978.37
2023-01-09T00:45:35.128Z,978.32
2023-01-09T00:46:35.127Z,978.32
2023-01-09T00:47:35.146Z,978.31
2023-01-09T00:48:35.161Z,978.38
2023-01-09T00:49:35.176Z,978.38
2023-01-09T00:50:35.234Z,978.4
2023-01-09T00:51:35.212Z,978.41
2023-01-09T00:52:35.236Z,978.41
2023-01-09T00:53:35.240Z,978.37
2023-01-09T00:54:35.254Z,978.42
2023-01-09T00:55:35.285Z,978.4
2023-01-09T00:56:35.286Z,978.41
2023-01-09T00:57:35.303Z,978.37
2023-01-09T00:58:35.348Z,978.41
2023-01-09T00:59:35.335Z,978.42
2023-01-09T01:00:35.349Z,978.48
2023-01-09T01:01:35.506Z,978.45
2023-01-09T01:02:35.412Z,978.42
2023-01-09T01:03:35.413Z,978.45
2023-01-09T01:04:35.408Z,978.43
2023-01-09T01:05:35.430Z,978.48
2023-01-09T01:06:35.449Z,978.47
2023-01-09T01:07:35.461Z,978.45
2023-01-09T01:08:35.497Z,978.47
2023-01-09T01:09:35.537Z,978.46
2023-01-09T01:10:35.517Z,978.46
2023-01-09T01:11:35.522Z,978.46
2023-01-09T01:12:35.542Z,978.47
2023-01-09T01:13:35.551Z,978.46
2023-01-09T01:14:35.595Z,978.45
2023-01-09T01:15:35.590Z,978.45
2023-01-09T01:16:35.636Z,978.49
2023-01-09T01:17:35.613Z,978.47
2023-01-09T01:18:35.632Z,978.43
2023-01-09T01:19:35.640Z,978.44
2023-01-09T01:20:35.664Z,978.46
2023-01-09T01:21:35.676Z,978.47
2023-01-09T01:22:35.691Z,978.5
2023-01-09T01:23:35.725Z,978.52
2023-01-09T01:24:35.929Z,978.48
2023-01-09T01:25:35.736Z,978.49
2023-01-09T01:26:35.768Z,978.5
2023-01-09T01:27:35.770Z,978.51
2023-01-09T01:28:35.794Z,978.51
2023-01-09T01:29:35.801Z,978.53
2023-01-09T01:30:35.893Z,978.54
2023-01-09T01:31:35.833Z,978.51
2023-01-09T01:32:35.853Z,978.49
2023-01-09T01:33:35.870Z,978.49
2023-01-09T01:34:35.886Z,978.49
2023-01-09T01:35:35.896Z,978.49
2023-01-09T01:36:35.916Z,978.47
2023-01-09T01:37:35.928Z,978.48
2023-01-09T01:38:35.967Z,978.49
2023-01-09T01:39:35.958Z,978.48
2023-01-09T01:40:35.976Z,978.51
2023-01-09T01:41:35.991Z,978.47
2023-01-09T01:42:36.008Z,978.5
2023-01-09T01:43:36.026Z,978.45
2023-01-09T01:44:36.039Z,978.44
2023-01-09T01:45:36.054Z,978.45
2023-01-09T01:46:36.091Z,978.47
2023-01-09T01:47:36.087Z,978.44
2023-01-09T01:48:36.101Z,978.44
2023-01-09T01:49:36.120Z,978.51
2023-01-09T01:50:36.134Z,978.51
2023-01-09T01:51:36.150Z,978.47
2023-01-09T01:52:36.167Z,978.47
2023-01-09T01:53:36.181Z,978.45
2023-01-09T01:54:36.194Z,978.47
2023-01-09T01:55:36.215Z,978.45
2023-01-09T01:56:36.231Z,978.49
2023-01-09T01:57:36.255Z,978.48
2023-01-09T01:58:36.255Z,978.5
2023-01-09T01:59:36.275Z,978.5
2023-01-09T02:00:36.287Z,978.49
2023-01-09T02:01:36.453Z,978.55
2023-01-09T02:02:36.344Z,978.54
2023-01-09T02:03:36.337Z,978.52
2023-01-09T02:04:36.360Z,978.53
2023-01-09T02:05:36.365Z,978.54
2023-01-09T02:06:36.384Z,978.59
2023-01-09T02:07:36.401Z,978.55
2023-01-09T02:08:36.416Z,978.57
2023-01-09T02:09:36.432Z,978.54
2023-01-09T02:10:36.448Z,978.59
2023-01-09T02:11:36.466Z,978.63
2023-01-09T02:12:36.487Z,978.61
2023-01-09T02:13:36.493Z,978.61
2023-01-09T02:14:36.507Z,978.63
2023-01-09T02:15:36.544Z,978.64
2023-01-09T02:16:36.542Z,978.68
2023-01-09T02:17:36.560Z,978.68
2023-01-09T02:18:36.600Z,978.68
2023-01-09T02:19:36.587Z,978.69
2023-01-09T02:20:36.602Z,978.68
2023-01-09T02:21:36.615Z,978.64
2023-01-09T02:22:36.646Z,978.64
2023-01-09T02:23:36.655Z,978.63
2023-01-09T02:24:36.866Z,978.61
2023-01-09T02:25:36.683Z,978.61
2023-01-09T02:26:36.711Z,978.58
2023-01-09T02:27:36.731Z,978.6
2023-01-09T02:28:36.737Z,978.62
2023-01-09T02:29:36.744Z,978.58
2023-01-09T02:30:36.763Z,978.6
2023-01-09T02:31:36.825Z,978.58
2023-01-09T02:32:36.792Z,978.54
2023-01-09T02:33:36.808Z,978.58
2023-01-09T02:34:36.848Z,978.57
2023-01-09T02:35:36.834Z,978.54
2023-01-09T02:36:36.854Z,978.56
2023-01-09T02:37:36.868Z,978.55
2023-01-09T02:38:36.887Z,978.55
2023-01-09T02:39:36.901Z,978.55
2023-01-09T02:40:36.913Z,978.53
2023-01-09T02:41:36.933Z,978.51
2023-01-09T02:42:37.093Z,978.53
2023-01-09T02:43:36.961Z,978.61
2023-01-09T02:44:37.092Z,978.58
2023-01-09T02:45:37.031Z,978.52
2023-01-09T02:46:37.011Z,978.52
2023-01-09T02:47:37.021Z,978.45
2023-01-09T02:48:37.047Z,978.44
2023-01-09T02:49:37.055Z,978.43
2023-01-09T02:50:37.097Z,978.47
2023-01-09T02:51:37.093Z,978.45
2023-01-09T02:52:37.105Z,978.45
2023-01-09T02:53:37.123Z,978.43
2023-01-09T02:54:37.134Z,978.39
2023-01-09T02:55:37.152Z,978.39
2023-01-09T02:56:37.167Z,978.4
2023-01-09T02:57:37.182Z,978.42
2023-01-09T02:58:37.198Z,978.44
2023-01-09T02:59:37.216Z,978.42
2023-01-09T03:00:37.228Z,978.39
2023-01-09T03:01:37.349Z,978.38
2023-01-09T03:02:37.310Z,978.39
2023-01-09T03:03:37.276Z,978.4
2023-01-09T03:04:37.291Z,978.4
2023-01-09T03:05:37.308Z,978.38
2023-01-09T03:06:37.349Z,978.34
2023-01-09T03:07:37.347Z,978.39
2023-01-09T03:08:37.355Z,978.37
2023-01-09T03:09:37.375Z,978.34
2023-01-09T03:10:37.388Z,978.38
2023-01-09T03:11:37.403Z,978.33
2023-01-09T03:12:37.418Z,978.37
2023-01-09T03:13:37.442Z,978.35
2023-01-09T03:14:37.446Z,978.33
2023-01-09T03:15:37.504Z,978.33
2023-01-09T03:16:37.514Z,978.3
2023-01-09T03:17:37.505Z,978.28
2023-01-09T03:18:37.526Z,978.24
2023-01-09T03:19:37.529Z,978.28
2023-01-09T03:20:37.546Z,978.32
2023-01-09T03:21:37.562Z,978.27
2023-01-09T03:22:37.604Z,978.25
2023-01-09T03:23:37.589Z,978.32
2023-01-09T03:24:37.807Z,978.32
2023-01-09T03:25:37.627Z,978.32
2023-01-09T03:26:37.636Z,978.31
2023-01-09T03:27:37.653Z,978.33
2023-01-09T03:28:37.675Z,978.32
2023-01-09T03:29:37.684Z,978.34
2023-01-09T03:30:37.699Z,978.38
2023-01-09T03:31:37.811Z,978.35
2023-01-09T03:32:37.740Z,978.38
2023-01-09T03:33:37.749Z,978.36
2023-01-09T03:34:37.764Z,978.33
2023-01-09T03:35:37.785Z,978.4
2023-01-09T03:36:37.793Z,978.43
2023-01-09T03:37:37.810Z,978.43
2023-01-09T03:38:37.850Z,978.46
2023-01-09T03:39:37.844Z,978.46
2023-01-09T03:40:37.887Z,978.46
2023-01-09T03:41:37.874Z,978.49
2023-01-09T03:42:37.887Z,978.46
2023-01-09T03:43:37.909Z,978.42
2023-01-09T03:44:37.919Z,978.46
2023-01-09T03:45:37.990Z,978.44
2023-01-09T03:46:37.952Z,978.44
2023-01-09T03:47:37.970Z,978.48
2023-01-09T03:48:37.983Z,978.47
2023-01-09T03:49:38.203Z,978.46
2023-01-09T03:50:38.017Z,978.49
2023-01-09T03:51:38.030Z,978.47
2023-01-09T03:52:38.053Z,978.48
2023-01-09T03:53:38.072Z,978.46
2023-01-09T03:54:38.119Z,978.5
2023-01-09T03:55:38.092Z,978.49
2023-01-09T03:56:38.108Z,978.46
2023-01-09T03:57:38.135Z,978.48
2023-01-09T03:58:38.149Z,978.47
2023-01-09T03:59:38.153Z,978.52
2023-01-09T04:00:38.172Z,978.53
2023-01-09T04:01:38.252Z,978.5
2023-01-09T04:02:38.203Z,978.55
2023-01-09T04:03:38.276Z,978.58
2023-01-09T04:04:38.232Z,978.63
2023-01-09T04:05:38.250Z,978.62
2023-01-09T04:06:38.265Z,978.64
2023-01-09T04:07:38.294Z,978.64
2023-01-09T04:08:38.298Z,978.61
2023-01-09T04:09:38.309Z,978.69
2023-01-09T04:10:38.376Z,978.66
2023-01-09T04:11:38.344Z,978.62
2023-01-09T04:12:38.364Z,978.63
2023-01-09T04:13:38.375Z,978.66
2023-01-09T04:14:38.389Z,978.63
2023-01-09T04:15:38.403Z,978.68
2023-01-09T04:16:38.467Z,978.71
2023-01-09T04:17:38.437Z,978.75
2023-01-09T04:18:38.453Z,978.78
2023-01-09T04:19:38.468Z,978.82
2023-01-09T04:20:38.488Z,978.87
2023-01-09T04:21:38.503Z,978.83
2023-01-09T04:22:38.515Z,978.83
2023-01-09T04:23:38.533Z,978.85
2023-01-09T04:24:39.045Z,978.85
2023-01-09T04:25:38.560Z,978.83
2023-01-09T04:26:38.623Z,978.84
2023-01-09T04:27:38.603Z,978.87
2023-01-09T04:28:38.606Z,978.89
2023-01-09T04:29:38.620Z,978.92
2023-01-09T04:30:38.638Z,978.92
2023-01-09T04:31:38.695Z,978.92
2023-01-09T04:32:38.672Z,978.95
2023-01-09T04:33:38.685Z,978.96
2023-01-09T04:34:38.713Z,978.97
2023-01-09T04:35:38.717Z,978.97
2023-01-09T04:36:38.736Z,978.99
2023-01-09T04:37:38.751Z,978.97
2023-01-09T04:38:38.764Z,979
2023-01-09T04:39:38.780Z,979.03
2023-01-09T04:40:38.800Z,979.04
2023-01-09T04:41:38.816Z,979.09
2023-01-09T04:42:38.856Z,979.06
2023-01-09T04:43:38.851Z,979.16
2023-01-09T04:44:38.857Z,979.16
2023-01-09T04:45:38.954Z,979.16
2023-01-09T04:46:38.897Z,979.19
2023-01-09T04:47:38.922Z,979.23
2023-01-09T04:48:38.920Z,979.22
2023-01-09T04:49:38.937Z,979.2
2023-01-09T04:50:38.955Z,979.22
2023-01-09T04:51:38.973Z,979.28
2023-01-09T04:52:39.247Z,979.31
2023-01-09T04:53:38.999Z,979.32
2023-01-09T04:54:39.013Z,979.34
2023-01-09T04:55:39.032Z,979.39
2023-01-09T04:56:39.043Z,979.43
2023-01-09T04:57:39.065Z,979.47
2023-01-09T04:58:39.101Z,979.51
2023-01-09T04:59:39.097Z,979.56
2023-01-09T05:00:39.258Z,979.57
2023-01-09T05:01:39.257Z,979.63
2023-01-09T05:02:39.135Z,979.65
2023-01-09T05:03:39.155Z,979.64
2023-01-09T05:04:39.189Z,979.63
2023-01-09T05:05:39.191Z,979.63
2023-01-09T05:06:39.202Z,979.68
2023-01-09T05:07:39.241Z,979.7
2023-01-09T05:08:39.228Z,979.72
2023-01-09T05:09:39.250Z,979.72
2023-01-09T05:10:39.261Z,979.74
2023-01-09T05:11:39.282Z,979.74
2023-01-09T05:12:39.292Z,979.76
2023-01-09T05:13:39.311Z,979.76
2023-01-09T05:14:39.351Z,979.74
2023-01-09T05:15:39.343Z,979.78
2023-01-09T05:16:39.399Z,979.75
2023-01-09T05:17:39.381Z,979.75
2023-01-09T05:18:39.391Z,979.72
2023-01-09T05:19:39.403Z,979.76
2023-01-09T05:20:39.414Z,979.71
2023-01-09T05:21:39.435Z,979.75
2023-01-09T05:22:39.446Z,979.73
2023-01-09T05:23:39.465Z,979.74
2023-01-09T05:24:39.902Z,979.75
2023-01-09T05:25:39.494Z,979.76
2023-01-09T05:26:39.514Z,979.79
2023-01-09T05:27:39.527Z,979.74
2023-01-09T05:28:39.541Z,979.75
2023-01-09T05:29:39.557Z,979.77
2023-01-09T05:30:39.607Z,979.76
2023-01-09T05:31:39.623Z,979.75
2023-01-09T05:32:39.603Z,979.73
2023-01-09T05:33:39.630Z,979.73
2023-01-09T05:34:39.636Z,979.76
2023-01-09T05:35:39.649Z,979.75
2023-01-09T05:36:39.699Z,979.75
2023-01-09T05:37:39.680Z,979.75
2023-01-09T05:38:39.694Z,979.73
2023-01-09T05:39:39.712Z,979.72
2023-01-09T05:40:40.623Z,979.71
2023-01-09T05:41:39.741Z,979.74
2023-01-09T05:42:39.758Z,979.7
2023-01-09T05:43:39.771Z,979.73
2023-01-09T05:44:39.781Z,979.75
2023-01-09T05:45:39.835Z,979.76
2023-01-09T05:46:39.864Z,979.83
2023-01-09T05:47:39.832Z,979.85
2023-01-09T05:48:39.850Z,979.82
2023-01-09T05:49:39.869Z,979.79
2023-01-09T05:50:39.883Z,979.83
2023-01-09T05:51:39.897Z,979.84
2023-01-09T05:52:39.903Z,979.89
2023-01-09T05:53:39.927Z,979.87
2023-01-09T05:54:39.943Z,979.87
2023-01-09T05:55:39.961Z,979.93
2023-01-09T05:56:39.974Z,979.91
2023-01-09T05:57:39.993Z,979.97
2023-01-09T05:58:40.009Z,979.97
2023-01-09T05:59:40.022Z,979.96
2023-01-09T06:00:40.045Z,979.97
2023-01-09T06:01:40.057Z,980.01
2023-01-09T06:02:40.177Z,979.99
2023-01-09T06:03:40.083Z,980
2023-01-09T06:04:40.104Z,980.03
2023-01-09T06:05:40.112Z,980.05
2023-01-09T06:06:40.135Z,980.11
2023-01-09T06:07:40.147Z,980.13
2023-01-09T06:08:40.166Z,980.09
2023-01-09T06:09:40.174Z,980.1
2023-01-09T06:10:40.196Z,980.11
2023-01-09T06:11:40.214Z,980.11
2023-01-09T06:12:40.226Z,980.13
2023-01-09T06:13:40.236Z,980.17
2023-01-09T06:14:40.254Z,980.16
2023-01-09T06:15:40.307Z,980.17
2023-01-09T06:16:40.281Z,980.22
2023-01-09T06:17:40.298Z,980.24
2023-01-09T06:18:40.342Z,980.23
2023-01-09T06:19:40.331Z,980.24
2023-01-09T06:20:40.346Z,980.31
2023-01-09T06:21:40.360Z,980.33
2023-01-09T06:22:40.376Z,980.33
2023-01-09T06:23:40.401Z,980.33
2023-01-09T06:24:40.464Z,980.33
2023-01-09T06:25:40.423Z,980.34
2023-01-09T06:26:40.442Z,980.33
2023-01-09T06:27:40.458Z,980.36
2023-01-09T06:28:40.471Z,980.37
2023-01-09T06:29:40.492Z,980.38
2023-01-09T06:30:40.500Z,980.33
2023-01-09T06:31:40.525Z,980.37
2023-01-09T06:32:40.530Z,980.35
2023-01-09T06:33:40.552Z,980.41
2023-01-09T06:34:40.586Z,980.44
2023-01-09T06:35:40.582Z,980.44
2023-01-09T06:36:40.593Z,980.46
2023-01-09T06:37:40.613Z,980.44
2023-01-09T06:38:40.628Z,980.47
2023-01-09T06:39:40.642Z,980.49
2023-01-09T06:40:40.667Z,980.48
2023-01-09T06:41:40.692Z,980.5
2023-01-09T06:42:40.688Z,980.51
2023-01-09T06:43:40.705Z,980.54
2023-01-09T06:44:40.716Z,980.52
2023-01-09T06:45:40.738Z,980.53
2023-01-09T06:46:40.750Z,980.52
2023-01-09T06:47:40.795Z,980.54
2023-01-09T06:48:40.784Z,980.55
2023-01-09T06:49:40.800Z,980.56
2023-01-09T06:50:40.836Z,980.52
2023-01-09T06:51:40.830Z,980.54
2023-01-09T06:52:40.842Z,980.59
2023-01-09T06:53:40.865Z,980.57
2023-01-09T06:54:40.874Z,980.57
2023-01-09T06:55:40.891Z,980.59
2023-01-09T06:56:40.906Z,980.6
2023-01-09T06:57:40.936Z,980.6
2023-01-09T06:58:40.935Z,980.62
2023-01-09T06:59:40.954Z,980.64
2023-01-09T07:00:40.969Z,980.59
2023-01-09T07:01:41.099Z,980.61
2023-01-09T07:02:41.004Z,980.57
2023-01-09T07:03:41.020Z,980.61
2023-01-09T07:04:41.030Z,980.62
2023-01-09T07:05:41.051Z,980.63
2023-01-09T07:06:41.091Z,980.67
2023-01-09T07:07:41.077Z,980.67
2023-01-09T07:08:41.102Z,980.69
2023-01-09T07:09:41.113Z,980.69
2023-01-09T07:10:41.126Z,980.71
2023-01-09T07:11:41.138Z,980.68
2023-01-09T07:12:41.162Z,980.73
2023-01-09T07:13:41.168Z,980.69
2023-01-09T07:14:41.190Z,980.73
2023-01-09T07:15:41.233Z,980.77
2023-01-09T07:16:41.221Z,980.8
2023-01-09T07:17:41.236Z,980.75
2023-01-09T07:18:41.249Z,980.84
2023-01-09T07:19:41.264Z,980.87
2023-01-09T07:20:41.296Z,980.87
2023-01-09T07:21:41.294Z,980.9
2023-01-09T07:22:41.337Z,980.93
2023-01-09T07:23:41.324Z,980.9
2023-01-09T07:24:41.742Z,980.9
2023-01-09T07:25:41.360Z,980.93
2023-01-09T07:26:43.273Z,980.91
2023-01-09T07:27:41.387Z,980.93
2023-01-09T07:28:41.405Z,980.89
2023-01-09T07:29:41.426Z,980.96
2023-01-09T07:30:41.443Z,980.93
2023-01-09T07:31:41.492Z,980.99
2023-01-09T07:32:41.468Z,980.96
2023-01-09T07:33:41.483Z,980.95
2023-01-09T07:34:41.497Z,981.02
2023-01-09T07:35:41.512Z,981.03
2023-01-09T07:36:41.547Z,981.05
2023-01-09T07:37:41.544Z,981.07
2023-01-09T07:38:41.582Z,981.07
2023-01-09T07:39:41.575Z,981.09
2023-01-09T07:40:41.589Z,981.08
2023-01-09T07:41:41.603Z,981.11
2023-01-09T07:42:41.620Z,981.09
2023-01-09T07:43:41.637Z,981.1
2023-01-09T07:44:41.667Z,981.12
2023-01-09T07:45:41.667Z,981.13
2023-01-09T07:46:41.776Z,981.09
2023-01-09T07:47:41.696Z,981.08
2023-01-09T07:48:41.721Z,981.12
2023-01-09T07:49:41.727Z,981.11
2023-01-09T07:50:41.745Z,981.11
2023-01-09T07:51:41.776Z,981.11
2023-01-09T07:52:41.787Z,981.14
2023-01-09T07:53:41.790Z,981.15
2023-01-09T07:54:41.833Z,981.12
2023-01-09T07:55:41.816Z,981.14
2023-01-09T07:56:41.837Z,981.12
2023-01-09T07:57:41.851Z,981.11
2023-01-09T07:58:41.874Z,981.09
2023-01-09T07:59:41.889Z,981.14
2023-01-09T08:00:41.899Z,981.09
2023-01-09T08:01:42.014Z,981.13
2023-01-09T08:02:41.982Z,981.14
2023-01-09T08:03:41.947Z,981.15
2023-01-09T08:04:41.962Z,981.18
2023-01-09T08:05:41.978Z,981.18
2023-01-09T08:06:41.992Z,981.19
2023-01-09T08:07:42.011Z,981.21
2023-01-09T08:08:42.023Z,981.22
2023-01-09T08:09:42.039Z,981.23
2023-01-09T08:10:42.077Z,981.23
2023-01-09T08:11:42.069Z,981.24
2023-01-09T08:12:42.092Z,981.23
2023-01-09T08:13:42.116Z,981.24
2023-01-09T08:14:42.122Z,981.2
2023-01-09T08:15:42.198Z,981.22
2023-01-09T08:16:42.148Z,981.27
2023-01-09T08:17:42.200Z,981.27
2023-01-09T08:18:42.178Z,981.25
2023-01-09T08:19:42.197Z,981.22
2023-01-09T08:20:42.210Z,981.25
2023-01-09T08:21:42.227Z,981.28
2023-01-09T08:22:42.240Z,981.28
2023-01-09T08:23:42.262Z,981.27
2023-01-09T08:24:42.476Z,981.27
2023-01-09T08:25:42.288Z,981.25
2023-01-09T08:26:42.340Z,981.26
2023-01-09T08:27:42.322Z,981.32
2023-01-09T08:28:42.334Z,981.28
2023-01-09T08:29:42.349Z,981.34
2023-01-09T08:30:42.363Z,981.32
2023-01-09T08:31:42.510Z,981.35
2023-01-09T08:32:42.396Z,981.32
2023-01-09T08:33:42.409Z,981.36
2023-01-09T08:34:42.484Z,981.39
2023-01-09T08:35:42.442Z,981.4
2023-01-09T08:36:42.468Z,981.45
2023-01-09T08:37:42.473Z,981.38
2023-01-09T08:38:42.486Z,981.38
2023-01-09T08:39:42.506Z,981.41
2023-01-09T08:40:42.520Z,981.36
2023-01-09T08:41:42.533Z,981.39
2023-01-09T08:42:42.583Z,981.38
2023-01-09T08:43:42.563Z,981.4
2023-01-09T08:44:42.593Z,981.38
2023-01-09T08:45:42.598Z,981.42
2023-01-09T08:46:42.657Z,981.43
2023-01-09T08:47:42.624Z,981.4
2023-01-09T08:48:42.639Z,981.46
2023-01-09T08:49:42.661Z,981.49
2023-01-09T08:50:42.672Z,981.47
2023-01-09T08:51:42.686Z,981.53
2023-01-09T08:52:42.702Z,981.56
2023-01-09T08:53:42.719Z,981.55
2023-01-09T08:54:42.734Z,981.55
2023-01-09T08:55:42.749Z,981.61
2023-01-09T08:56:42.767Z,981.56
2023-01-09T08:57:42.780Z,981.56
2023-01-09T08:58:42.822Z,981.6
2023-01-09T08:59:42.808Z,981.6
2023-01-09T09:00:42.825Z,981.59
2023-01-09T09:01:42.868Z,981.59
2023-01-09T09:02:42.900Z,981.58
2023-01-09T09:03:42.871Z,981.58
2023-01-09T09:04:42.903Z,981.58
2023-01-09T09:05:42.901Z,981.57
2023-01-09T09:06:42.923Z,981.52
2023-01-09T09:07:42.933Z,981.56
2023-01-09T09:08:42.949Z,981.55
2023-01-09T09:09:42.961Z,981.54
2023-01-09T09:10:42.977Z,981.51
2023-01-09T09:11:42.998Z,981.52
2023-01-09T09:12:43.008Z,981.49
2023-01-09T09:13:43.027Z,981.5
2023-01-09T09:14:43.065Z,981.49
2023-01-09T09:15:43.094Z,981.51
2023-01-09T09:16:43.079Z,981.48
2023-01-09T09:17:43.089Z,981.54
2023-01-09T09:18:43.105Z,981.52
2023-01-09T09:19:43.125Z,981.52
2023-01-09T09:20:43.135Z,981.51
2023-01-09T09:21:43.147Z,981.47
2023-01-09T09:22:43.166Z,981.45
2023-01-09T09:23:43.188Z,981.47
2023-01-09T09:24:43.395Z,981.51
2023-01-09T09:25:43.208Z,981.54
2023-01-09T09:26:44.644Z,981.49
2023-01-09T09:27:43.258Z,981.48
2023-01-09T09:28:43.261Z,981.44
2023-01-09T09:29:43.270Z,981.49
2023-01-09T09:30:43.311Z,981.48
2023-01-09T09:31:43.302Z,981.44
2023-01-09T09:32:43.318Z,981.5
2023-01-09T09:33:43.333Z,981.52
2023-01-09T09:34:43.361Z,981.51
2023-01-09T09:35:43.367Z,981.52
2023-01-09T09:36:43.442Z,981.54
2023-01-09T09:37:43.396Z,981.56
2023-01-09T09:38:43.411Z,981.55
2023-01-09T09:39:43.434Z,981.58
2023-01-09T09:40:43.440Z,981.61
2023-01-09T09:41:43.458Z,981.59
2023-01-09T09:42:43.471Z,981.59
2023-01-09T09:43:43.546Z,981.57
2023-01-09T09:44:48.285Z,981.54
2023-01-09T09:45:43.528Z,981.6
2023-01-09T09:46:43.629Z,981.55
2023-01-09T09:47:43.558Z,981.53
2023-01-09T09:48:43.565Z,981.53
2023-01-09T09:49:43.584Z,981.52
2023-01-09T09:50:43.595Z,981.59
2023-01-09T09:51:43.609Z,981.62
2023-01-09T09:52:43.636Z,981.58
2023-01-09T09:53:43.642Z,981.58
2023-01-09T09:54:43.652Z,981.59
2023-01-09T09:55:43.674Z,981.62
2023-01-09T09:56:43.688Z,981.63
2023-01-09T09:57:43.704Z,981.63
2023-01-09T09:58:43.719Z,981.65
2023-01-09T09:59:43.734Z,981.69
2023-01-09T10:00:43.751Z,981.64
2023-01-09T10:01:43.767Z,981.69
2023-01-09T10:02:43.856Z,981.64
2023-01-09T10:03:43.893Z,981.66
2023-01-09T10:04:43.809Z,981.67
2023-01-09T10:05:43.843Z,981.62
2023-01-09T10:06:43.843Z,981.62
2023-01-09T10:07:43.860Z,981.67
2023-01-09T10:08:43.878Z,981.64
2023-01-09T10:09:43.898Z,981.65
2023-01-09T10:10:43.906Z,981.63
2023-01-09T10:11:43.919Z,981.59
2023-01-09T10:12:43.931Z,981.67
2023-01-09T10:13:43.961Z,981.6
2023-01-09T10:14:43.964Z,981.61
2023-01-09T10:15:44.058Z,981.59
2023-01-09T10:16:43.995Z,981.5
2023-01-09T10:17:44.011Z,981.51
2023-01-09T10:18:44.053Z,981.53
2023-01-09T10:19:44.044Z,981.49
2023-01-09T10:20:44.058Z,981.46
2023-01-09T10:21:44.072Z,981.46
2023-01-09T10:22:44.087Z,981.49
2023-01-09T10:23:44.107Z,981.44
2023-01-09T10:24:44.463Z,981.49
2023-01-09T10:25:44.134Z,981.44
2023-01-09T10:26:44.152Z,981.44
2023-01-09T10:27:44.166Z,981.46
2023-01-09T10:28:44.180Z,981.43
2023-01-09T10:29:44.192Z,981.48
2023-01-09T10:30:44.218Z,981.41
2023-01-09T10:31:44.292Z,981.49
2023-01-09T10:32:44.243Z,981.45
2023-01-09T10:33:44.259Z,981.5
2023-01-09T10:34:46.760Z,981.51
2023-01-09T10:35:47.858Z,981.48
2023-01-09T10:36:44.315Z,981.48
2023-01-09T10:37:44.325Z,981.43
2023-01-09T10:38:44.338Z,981.48
2023-01-09T10:39:44.546Z,981.47
2023-01-09T10:40:44.367Z,981.54
2023-01-09T10:41:44.379Z,981.51
2023-01-09T10:42:44.397Z,981.47
2023-01-09T10:43:44.414Z,981.5
2023-01-09T10:44:44.530Z,981.52
2023-01-09T10:45:44.450Z,981.54
2023-01-09T10:46:44.538Z,981.52
2023-01-09T10:47:44.474Z,981.5
2023-01-09T10:48:44.498Z,981.56
2023-01-09T10:49:44.560Z,981.53
2023-01-09T10:50:44.543Z,981.52
2023-01-09T10:51:44.540Z,981.6
2023-01-09T10:52:44.551Z,981.56
2023-01-09T10:53:44.566Z,981.52
2023-01-09T10:54:44.634Z,981.5
2023-01-09T10:55:44.612Z,981.49
2023-01-09T10:56:44.612Z,981.51
2023-01-09T10:57:44.652Z,981.54
2023-01-09T10:58:44.651Z,981.53
2023-01-09T10:59:44.661Z,981.55
2023-01-09T11:00:44.684Z,981.53
2023-01-09T11:01:44.693Z,981.53
2023-01-09T11:02:44.704Z,981.56
2023-01-09T11:03:44.779Z,981.5
2023-01-09T11:04:44.733Z,981.53
2023-01-09T11:05:44.748Z,981.49
2023-01-09T11:06:44.791Z,981.53
2023-01-09T11:07:44.782Z,981.52
2023-01-09T11:08:44.797Z,981.58
2023-01-09T11:09:44.808Z,981.5
2023-01-09T11:10:44.835Z,981.6
2023-01-09T11:11:44.845Z,981.6
2023-01-09T11:12:44.862Z,981.51
2023-01-09T11:13:44.874Z,981.58
2023-01-09T11:14:44.887Z,981.55
2023-01-09T11:15:44.921Z,981.57
2023-01-09T11:16:44.923Z,981.56
2023-01-09T11:17:44.936Z,981.6
2023-01-09T11:18:44.952Z,981.56
2023-01-09T11:19:44.973Z,981.65
2023-01-09T11:20:44.991Z,981.66
2023-01-09T11:21:44.999Z,981.56
2023-01-09T11:22:45.051Z,981.56
2023-01-09T11:23:45.027Z,981.55
2023-01-09T11:24:45.242Z,981.59
2023-01-09T11:25:45.059Z,981.58
2023-01-09T11:26:45.083Z,981.55
2023-01-09T11:27:45.091Z,981.6
2023-01-09T11:28:45.103Z,981.7
2023-01-09T11:29:45.119Z,981.56
2023-01-09T11:30:45.137Z,981.65
2023-01-09T11:31:45.223Z,981.64
2023-01-09T11:32:45.164Z,981.59
2023-01-09T11:33:45.185Z,981.65
2023-01-09T11:34:45.192Z,981.65
2023-01-09T11:35:45.214Z,981.7
2023-01-09T11:36:45.236Z,981.63
2023-01-09T11:37:45.242Z,981.65
2023-01-09T11:38:45.298Z,981.58
2023-01-09T11:39:45.273Z,981.62
2023-01-09T11:40:45.292Z,981.58
2023-01-09T11:41:45.308Z,981.63
2023-01-09T11:42:45.322Z,981.64
2023-01-09T11:43:45.349Z,981.66
2023-01-09T11:44:45.355Z,981.61
2023-01-09T11:45:50.325Z,981.64
2023-01-09T11:46:45.408Z,981.72
2023-01-09T11:47:45.401Z,981.65
2023-01-09T11:48:45.414Z,981.67
2023-01-09T11:49:45.425Z,981.74
2023-01-09T11:50:45.443Z,981.72
2023-01-09T11:51:45.466Z,981.71
2023-01-09T11:52:45.475Z,981.72
2023-01-09T11:53:45.493Z,981.74
2023-01-09T11:54:45.533Z,981.76
2023-01-09T11:55:45.534Z,981.78
2023-01-09T11:56:45.544Z,981.76
2023-01-09T11:57:45.553Z,981.78
2023-01-09T11:58:45.576Z,981.75
2023-01-09T11:59:45.583Z,981.73
2023-01-09T12:00:45.595Z,981.82
2023-01-09T12:01:45.663Z,981.85
2023-01-09T12:02:45.663Z,981.79
2023-01-09T12:03:45.645Z,981.85
2023-01-09T12:04:45.660Z,981.9
2023-01-09T12:05:45.675Z,981.84
2023-01-09T12:06:45.689Z,981.83
2023-01-09T12:07:45.715Z,981.86
2023-01-09T12:08:45.718Z,981.82
2023-01-09T12:09:45.738Z,981.86
2023-01-09T12:10:45.783Z,981.93
2023-01-09T12:11:45.769Z,981.91
2023-01-09T12:12:45.782Z,981.83
2023-01-09T12:13:45.797Z,981.93
2023-01-09T12:14:45.812Z,981.96
2023-01-09T12:15:45.837Z,981.85
2023-01-09T12:16:45.854Z,981.86
2023-01-09T12:17:45.874Z,981.85
2023-01-09T12:18:45.876Z,981.93
2023-01-09T12:19:45.901Z,981.96
2023-01-09T12:20:45.912Z,982.01
2023-01-09T12:21:45.921Z,981.96
2023-01-09T12:22:45.943Z,981.99
2023-01-09T12:23:45.951Z,981.96
2023-01-09T12:24:46.279Z,981.97
2023-01-09T12:25:45.984Z,981.95
2023-01-09T12:26:46.030Z,981.94
2023-01-09T12:27:46.011Z,981.93
2023-01-09T12:28:46.030Z,981.99
2023-01-09T12:29:46.041Z,981.93
2023-01-09T12:30:46.061Z,981.94